sensor_id;sensor_type;location;lat;lon;timestamp;temperature;humidity
13332;DHT22;6735;51.456;12.626;2022-12-10T00:00:54;1.10;88.70
13332;DHT22;6735;51.456;12.626;2022-12-10T00:03:19;1.10;88.60
13332;DHT22;6735;51.456;12.626;2022-12-10T00:05:45;1.10;88.60
13332;DHT22;6735;51.456;12.626;2022-12-10T00:08:10;1.10;88.80
13332;DHT22;6735;51.456;12.626;2022-12-10T00:10:39;1.10;88.70
13332;DHT22;6735;51.456;12.626;2022-12-10T00:13:05;1.10;88.60
13332;DHT22;6735;51.456;12.626;2022-12-10T00:15:30;1.10;88.70
13332;DHT22;6735;51.456;12.626;2022-12-10T00:17:56;1.10;88.60
13332;DHT22;6735;51.456;12.626;2022-12-10T00:20:21;1.10;88.60
13332;DHT22;6735;51.456;12.626;2022-12-10T00:22:47;1.10;88.50
13332;DHT22;6735;51.456;12.626;2022-12-10T00:25:12;1.10;88.60
13332;DHT22;6735;51.456;12.626;2022-12-10T00:27:37;1.10;88.50
13332;DHT22;6735;51.456;12.626;2022-12-10T00:30:03;1.00;88.70
13332;DHT22;6735;51.456;12.626;2022-12-10T00:32:29;1.10;88.70
13332;DHT22;6735;51.456;12.626;2022-12-10T00:34:54;1.10;88.80
13332;DHT22;6735;51.456;12.626;2022-12-10T00:37:20;1.10;88.70
13332;DHT22;6735;51.456;12.626;2022-12-10T00:39:45;1.00;88.60
13332;DHT22;6735;51.456;12.626;2022-12-10T00:42:11;1.00;88.90
13332;DHT22;6735;51.456;12.626;2022-12-10T00:44:36;1.00;88.90
13332;DHT22;6735;51.456;12.626;2022-12-10T00:47:02;1.00;89.00
13332;DHT22;6735;51.456;12.626;2022-12-10T00:49:27;1.00;88.90
13332;DHT22;6735;51.456;12.626;2022-12-10T00:51:53;1.00;88.90
13332;DHT22;6735;51.456;12.626;2022-12-10T00:54:18;1.10;88.90
13332;DHT22;6735;51.456;12.626;2022-12-10T00:56:44;1.00;88.70
13332;DHT22;6735;51.456;12.626;2022-12-10T00:59:09;1.00;88.90
13332;DHT22;6735;51.456;12.626;2022-12-10T01:01:37;1.10;88.80
13332;DHT22;6735;51.456;12.626;2022-12-10T01:04:06;1.10;88.90
13332;DHT22;6735;51.456;12.626;2022-12-10T01:06:41;1.10;88.60
13332;DHT22;6735;51.456;12.626;2022-12-10T01:09:09;1.10;88.80
13332;DHT22;6735;51.456;12.626;2022-12-10T01:11:37;1.10;88.90
13332;DHT22;6735;51.456;12.626;2022-12-10T01:14:03;1.10;88.80
13332;DHT22;6735;51.456;12.626;2022-12-10T01:16:29;1.10;88.80
13332;DHT22;6735;51.456;12.626;2022-12-10T01:18:56;1.10;88.60
13332;DHT22;6735;51.456;12.626;2022-12-10T01:21:23;1.10;88.70
13332;DHT22;6735;51.456;12.626;2022-12-10T01:23:50;1.10;88.70
13332;DHT22;6735;51.456;12.626;2022-12-10T01:26:22;1.20;88.80
13332;DHT22;6735;51.456;12.626;2022-12-10T01:28:49;1.30;88.80
13332;DHT22;6735;51.456;12.626;2022-12-10T01:31:19;1.30;88.50
13332;DHT22;6735;51.456;12.626;2022-12-10T01:33:45;1.20;88.40
13332;DHT22;6735;51.456;12.626;2022-12-10T01:36:14;1.20;88.40
13332;DHT22;6735;51.456;12.626;2022-12-10T01:38:40;1.20;88.20
13332;DHT22;6735;51.456;12.626;2022-12-10T01:41:08;1.20;88.40
13332;DHT22;6735;51.456;12.626;2022-12-10T01:44:03;1.20;88.40
13332;DHT22;6735;51.456;12.626;2022-12-10T01:46:32;1.20;88.50
13332;DHT22;6735;51.456;12.626;2022-12-10T01:49:00;1.10;88.40
13332;DHT22;6735;51.456;12.626;2022-12-10T01:51:28;1.10;88.50
13332;DHT22;6735;51.456;12.626;2022-12-10T01:53:55;1.20;88.50
13332;DHT22;6735;51.456;12.626;2022-12-10T01:56:21;1.20;88.50
13332;DHT22;6735;51.456;12.626;2022-12-10T01:58:49;1.10;88.50
13332;DHT22;6735;51.456;12.626;2022-12-10T02:01:28;1.10;88.60
13332;DHT22;6735;51.456;12.626;2022-12-10T02:04:21;1.10;88.50
13332;DHT22;6735;51.456;12.626;2022-12-10T02:07:00;1.10;88.80
13332;DHT22;6735;51.456;12.626;2022-12-10T02:12:18;1.10;88.80
13332;DHT22;6735;51.456;12.626;2022-12-10T02:17:48;1.20;88.70
13332;DHT22;6735;51.456;12.626;2022-12-10T02:20:24;1.20;88.70
13332;DHT22;6735;51.456;12.626;2022-12-10T02:22:55;1.20;88.70
13332;DHT22;6735;51.456;12.626;2022-12-10T02:25:29;1.20;88.70
13332;DHT22;6735;51.456;12.626;2022-12-10T02:28:05;1.20;88.70
13332;DHT22;6735;51.456;12.626;2022-12-10T02:30:32;1.20;88.60
13332;DHT22;6735;51.456;12.626;2022-12-10T02:33:01;1.20;88.60
13332;DHT22;6735;51.456;12.626;2022-12-10T02:35:31;1.20;88.50
13332;DHT22;6735;51.456;12.626;2022-12-10T02:38:09;1.10;88.50
13332;DHT22;6735;51.456;12.626;2022-12-10T02:40:37;1.20;88.60
13332;DHT22;6735;51.456;12.626;2022-12-10T02:43:03;1.20;88.70
13332;DHT22;6735;51.456;12.626;2022-12-10T02:45:30;1.20;88.60
13332;DHT22;6735;51.456;12.626;2022-12-10T02:47:58;1.20;88.60
13332;DHT22;6735;51.456;12.626;2022-12-10T02:50:24;1.20;88.60
13332;DHT22;6735;51.456;12.626;2022-12-10T02:52:50;1.30;88.60
13332;DHT22;6735;51.456;12.626;2022-12-10T02:55:17;1.10;88.40
13332;DHT22;6735;51.456;12.626;2022-12-10T03:00:28;1.20;88.60
13332;DHT22;6735;51.456;12.626;2022-12-10T03:05:46;1.10;88.50
13332;DHT22;6735;51.456;12.626;2022-12-10T03:08:27;1.10;88.70
13332;DHT22;6735;51.456;12.626;2022-12-10T03:11:13;1.10;88.60
13332;DHT22;6735;51.456;12.626;2022-12-10T03:14:05;1.00;88.60
13332;DHT22;6735;51.456;12.626;2022-12-10T03:16:48;1.00;88.60
13332;DHT22;6735;51.456;12.626;2022-12-10T03:19:18;1.10;89.00
13332;DHT22;6735;51.456;12.626;2022-12-10T03:21:46;1.10;88.90
13332;DHT22;6735;51.456;12.626;2022-12-10T03:24:13;1.10;88.80
13332;DHT22;6735;51.456;12.626;2022-12-10T03:26:41;1.00;88.80
13332;DHT22;6735;51.456;12.626;2022-12-10T03:29:12;1.00;88.90
13332;DHT22;6735;51.456;12.626;2022-12-10T03:31:40;1.00;89.00
13332;DHT22;6735;51.456;12.626;2022-12-10T03:34:08;1.00;89.00
13332;DHT22;6735;51.456;12.626;2022-12-10T03:36:35;1.10;89.10
13332;DHT22;6735;51.456;12.626;2022-12-10T03:39:01;1.10;89.00
13332;DHT22;6735;51.456;12.626;2022-12-10T03:41:27;1.10;89.10
13332;DHT22;6735;51.456;12.626;2022-12-10T03:43:57;1.10;88.90
13332;DHT22;6735;51.456;12.626;2022-12-10T03:46:25;1.10;89.00
13332;DHT22;6735;51.456;12.626;2022-12-10T03:48:51;1.10;89.00
13332;DHT22;6735;51.456;12.626;2022-12-10T03:51:18;1.10;89.00
13332;DHT22;6735;51.456;12.626;2022-12-10T03:53:43;1.10;89.00
13332;DHT22;6735;51.456;12.626;2022-12-10T03:56:09;1.10;88.90
13332;DHT22;6735;51.456;12.626;2022-12-10T03:58:34;1.10;89.00
13332;DHT22;6735;51.456;12.626;2022-12-10T04:01:01;1.10;89.10
13332;DHT22;6735;51.456;12.626;2022-12-10T04:03:27;1.10;89.10
13332;DHT22;6735;51.456;12.626;2022-12-10T04:05:52;1.10;89.00
13332;DHT22;6735;51.456;12.626;2022-12-10T04:08:18;1.10;89.10
13332;DHT22;6735;51.456;12.626;2022-12-10T04:10:43;1.00;89.00
13332;DHT22;6735;51.456;12.626;2022-12-10T04:13:09;1.00;89.10
13332;DHT22;6735;51.456;12.626;2022-12-10T04:15:53;1.00;89.20
13332;DHT22;6735;51.456;12.626;2022-12-10T04:18:37;1.00;89.10
13332;DHT22;6735;51.456;12.626;2022-12-10T04:21:02;1.00;89.20
13332;DHT22;6735;51.456;12.626;2022-12-10T04:23:46;1.00;89.00
13332;DHT22;6735;51.456;12.626;2022-12-10T04:26:30;1.00;89.10
13332;DHT22;6735;51.456;12.626;2022-12-10T04:29:14;0.90;89.20
13332;DHT22;6735;51.456;12.626;2022-12-10T04:31:40;0.90;89.40
13332;DHT22;6735;51.456;12.626;2022-12-10T04:34:05;0.90;89.30
13332;DHT22;6735;51.456;12.626;2022-12-10T04:36:31;0.90;89.50
13332;DHT22;6735;51.456;12.626;2022-12-10T04:38:56;0.90;89.40
13332;DHT22;6735;51.456;12.626;2022-12-10T04:41:22;0.90;89.40
13332;DHT22;6735;51.456;12.626;2022-12-10T04:43:47;0.90;89.40
13332;DHT22;6735;51.456;12.626;2022-12-10T04:46:13;0.90;89.40
13332;DHT22;6735;51.456;12.626;2022-12-10T04:48:38;0.80;89.50
13332;DHT22;6735;51.456;12.626;2022-12-10T04:51:04;0.80;89.60
13332;DHT22;6735;51.456;12.626;2022-12-10T04:53:30;0.80;89.60
13332;DHT22;6735;51.456;12.626;2022-12-10T04:55:55;0.80;89.60
13332;DHT22;6735;51.456;12.626;2022-12-10T04:58:21;0.70;89.60
13332;DHT22;6735;51.456;12.626;2022-12-10T05:00:46;0.70;89.80
13332;DHT22;6735;51.456;12.626;2022-12-10T05:03:12;0.80;89.80
13332;DHT22;6735;51.456;12.626;2022-12-10T05:05:37;0.80;89.60
13332;DHT22;6735;51.456;12.626;2022-12-10T05:08:03;0.80;89.70
13332;DHT22;6735;51.456;12.626;2022-12-10T05:10:29;0.70;89.70
13332;DHT22;6735;51.456;12.626;2022-12-10T05:12:55;0.70;89.80
13332;DHT22;6735;51.456;12.626;2022-12-10T05:15:21;0.70;89.90
13332;DHT22;6735;51.456;12.626;2022-12-10T05:17:46;0.70;90.00
13332;DHT22;6735;51.456;12.626;2022-12-10T05:20:12;0.80;90.00
13332;DHT22;6735;51.456;12.626;2022-12-10T05:22:37;0.80;89.90
13332;DHT22;6735;51.456;12.626;2022-12-10T05:25:21;0.70;89.80
13332;DHT22;6735;51.456;12.626;2022-12-10T05:27:47;0.70;89.90
13332;DHT22;6735;51.456;12.626;2022-12-10T05:30:12;0.70;90.00
13332;DHT22;6735;51.456;12.626;2022-12-10T05:32:38;0.60;90.00
13332;DHT22;6735;51.456;12.626;2022-12-10T05:35:04;0.60;90.00
13332;DHT22;6735;51.456;12.626;2022-12-10T05:37:30;0.50;90.00
13332;DHT22;6735;51.456;12.626;2022-12-10T05:39:56;0.60;90.20
13332;DHT22;6735;51.456;12.626;2022-12-10T05:42:21;0.60;90.20
13332;DHT22;6735;51.456;12.626;2022-12-10T05:44:47;0.60;90.20
13332;DHT22;6735;51.456;12.626;2022-12-10T05:47:12;0.60;90.20
13332;DHT22;6735;51.456;12.626;2022-12-10T05:49:38;0.50;90.20
13332;DHT22;6735;51.456;12.626;2022-12-10T05:52:03;0.50;90.20
13332;DHT22;6735;51.456;12.626;2022-12-10T05:54:29;0.60;90.20
13332;DHT22;6735;51.456;12.626;2022-12-10T05:56:54;0.60;90.10
13332;DHT22;6735;51.456;12.626;2022-12-10T05:59:20;0.50;90.10
13332;DHT22;6735;51.456;12.626;2022-12-10T06:01:46;0.50;90.20
13332;DHT22;6735;51.456;12.626;2022-12-10T06:04:12;0.50;90.20
13332;DHT22;6735;51.456;12.626;2022-12-10T06:06:38;0.50;90.10
13332;DHT22;6735;51.456;12.626;2022-12-10T06:09:05;0.50;90.20
13332;DHT22;6735;51.456;12.626;2022-12-10T06:11:31;0.50;90.10
13332;DHT22;6735;51.456;12.626;2022-12-10T06:13:58;0.60;90.20
13332;DHT22;6735;51.456;12.626;2022-12-10T06:16:25;0.60;90.30
13332;DHT22;6735;51.456;12.626;2022-12-10T06:18:52;0.60;90.20
13332;DHT22;6735;51.456;12.626;2022-12-10T06:21:19;0.50;90.00
13332;DHT22;6735;51.456;12.626;2022-12-10T06:23:45;0.50;90.10
13332;DHT22;6735;51.456;12.626;2022-12-10T06:26:14;0.40;90.10
13332;DHT22;6735;51.456;12.626;2022-12-10T06:28:40;0.40;90.30
13332;DHT22;6735;51.456;12.626;2022-12-10T06:31:06;0.40;90.30
13332;DHT22;6735;51.456;12.626;2022-12-10T06:33:32;0.40;90.30
13332;DHT22;6735;51.456;12.626;2022-12-10T06:35:58;0.40;90.20
13332;DHT22;6735;51.456;12.626;2022-12-10T06:38:23;0.40;90.30
13332;DHT22;6735;51.456;12.626;2022-12-10T06:40:49;0.30;90.20
13332;DHT22;6735;51.456;12.626;2022-12-10T06:43:15;0.30;90.30
13332;DHT22;6735;51.456;12.626;2022-12-10T06:45:41;0.30;90.30
13332;DHT22;6735;51.456;12.626;2022-12-10T06:48:07;0.40;90.30
13332;DHT22;6735;51.456;12.626;2022-12-10T06:50:34;0.30;90.30
13332;DHT22;6735;51.456;12.626;2022-12-10T06:52:59;0.20;90.20
13332;DHT22;6735;51.456;12.626;2022-12-10T06:55:25;0.20;90.30
13332;DHT22;6735;51.456;12.626;2022-12-10T06:57:51;0.20;90.40
13332;DHT22;6735;51.456;12.626;2022-12-10T07:00:17;0.20;90.40
13332;DHT22;6735;51.456;12.626;2022-12-10T07:02:43;0.20;90.30
13332;DHT22;6735;51.456;12.626;2022-12-10T07:05:09;0.20;90.40
13332;DHT22;6735;51.456;12.626;2022-12-10T07:07:35;0.20;90.40
13332;DHT22;6735;51.456;12.626;2022-12-10T07:10:01;0.20;90.20
13332;DHT22;6735;51.456;12.626;2022-12-10T07:12:27;0.20;90.30
13332;DHT22;6735;51.456;12.626;2022-12-10T07:14:53;0.20;90.30
13332;DHT22;6735;51.456;12.626;2022-12-10T07:17:18;0.20;90.20
13332;DHT22;6735;51.456;12.626;2022-12-10T07:19:44;0.20;90.20
13332;DHT22;6735;51.456;12.626;2022-12-10T07:22:09;0.20;90.20
13332;DHT22;6735;51.456;12.626;2022-12-10T07:24:35;0.20;90.20
13332;DHT22;6735;51.456;12.626;2022-12-10T07:27:00;0.10;90.10
13332;DHT22;6735;51.456;12.626;2022-12-10T07:29:26;0.20;90.20
13332;DHT22;6735;51.456;12.626;2022-12-10T07:31:52;0.20;90.10
13332;DHT22;6735;51.456;12.626;2022-12-10T07:34:17;0.20;90.20
13332;DHT22;6735;51.456;12.626;2022-12-10T07:36:43;0.20;90.20
13332;DHT22;6735;51.456;12.626;2022-12-10T07:39:09;0.30;90.20
13332;DHT22;6735;51.456;12.626;2022-12-10T07:41:35;0.30;90.10
13332;DHT22;6735;51.456;12.626;2022-12-10T07:44:02;0.30;90.00
13332;DHT22;6735;51.456;12.626;2022-12-10T07:46:30;0.20;90.00
13332;DHT22;6735;51.456;12.626;2022-12-10T07:48:58;0.20;90.10
13332;DHT22;6735;51.456;12.626;2022-12-10T07:51:24;0.30;90.20
13332;DHT22;6735;51.456;12.626;2022-12-10T07:53:54;0.30;90.10
13332;DHT22;6735;51.456;12.626;2022-12-10T07:56:20;0.40;90.20
13332;DHT22;6735;51.456;12.626;2022-12-10T07:58:47;0.30;90.00
13332;DHT22;6735;51.456;12.626;2022-12-10T08:01:18;0.30;90.00
13332;DHT22;6735;51.456;12.626;2022-12-10T08:03:43;0.30;89.90
13332;DHT22;6735;51.456;12.626;2022-12-10T08:06:12;0.30;90.10
13332;DHT22;6735;51.456;12.626;2022-12-10T08:08:39;0.30;90.10
13332;DHT22;6735;51.456;12.626;2022-12-10T08:11:06;0.40;90.10
13332;DHT22;6735;51.456;12.626;2022-12-10T08:13:32;0.30;90.00
13332;DHT22;6735;51.456;12.626;2022-12-10T08:16:12;0.40;90.00
13332;DHT22;6735;51.456;12.626;2022-12-10T08:18:39;0.30;90.00
13332;DHT22;6735;51.456;12.626;2022-12-10T08:21:09;0.40;90.00
13332;DHT22;6735;51.456;12.626;2022-12-10T08:23:35;0.40;89.80
13332;DHT22;6735;51.456;12.626;2022-12-10T08:26:10;0.40;89.80
13332;DHT22;6735;51.456;12.626;2022-12-10T08:28:36;0.40;89.80
13332;DHT22;6735;51.456;12.626;2022-12-10T08:31:02;0.40;89.80
13332;DHT22;6735;51.456;12.626;2022-12-10T08:33:28;0.40;89.80
13332;DHT22;6735;51.456;12.626;2022-12-10T08:35:58;0.50;90.10
13332;DHT22;6735;51.456;12.626;2022-12-10T08:38:24;0.50;89.60
13332;DHT22;6735;51.456;12.626;2022-12-10T08:40:50;0.60;90.00
13332;DHT22;6735;51.456;12.626;2022-12-10T08:43:15;0.60;89.70
13332;DHT22;6735;51.456;12.626;2022-12-10T08:45:41;0.80;89.80
13332;DHT22;6735;51.456;12.626;2022-12-10T08:48:06;0.90;89.80
13332;DHT22;6735;51.456;12.626;2022-12-10T08:50:32;1.00;89.70
13332;DHT22;6735;51.456;12.626;2022-12-10T08:52:57;1.00;88.90
13332;DHT22;6735;51.456;12.626;2022-12-10T08:55:23;1.00;88.60
13332;DHT22;6735;51.456;12.626;2022-12-10T08:57:48;0.80;88.10
13332;DHT22;6735;51.456;12.626;2022-12-10T09:00:14;0.80;88.40
13332;DHT22;6735;51.456;12.626;2022-12-10T09:02:40;0.80;88.40
13332;DHT22;6735;51.456;12.626;2022-12-10T09:05:06;0.80;88.40
13332;DHT22;6735;51.456;12.626;2022-12-10T09:07:31;0.80;88.60
13332;DHT22;6735;51.456;12.626;2022-12-10T09:09:57;0.80;88.50
13332;DHT22;6735;51.456;12.626;2022-12-10T09:12:23;0.80;88.20
13332;DHT22;6735;51.456;12.626;2022-12-10T09:14:48;0.70;88.50
13332;DHT22;6735;51.456;12.626;2022-12-10T09:17:14;0.90;88.50
13332;DHT22;6735;51.456;12.626;2022-12-10T09:19:39;0.90;88.30
13332;DHT22;6735;51.456;12.626;2022-12-10T09:22:05;0.90;88.10
13332;DHT22;6735;51.456;12.626;2022-12-10T09:24:30;1.00;88.00
13332;DHT22;6735;51.456;12.626;2022-12-10T09:26:56;0.90;87.80
13332;DHT22;6735;51.456;12.626;2022-12-10T09:29:21;1.00;87.90
13332;DHT22;6735;51.456;12.626;2022-12-10T09:31:51;1.10;87.80
13332;DHT22;6735;51.456;12.626;2022-12-10T09:34:16;1.10;87.50
13332;DHT22;6735;51.456;12.626;2022-12-10T09:36:42;1.10;87.50
13332;DHT22;6735;51.456;12.626;2022-12-10T09:39:08;1.10;87.10
13332;DHT22;6735;51.456;12.626;2022-12-10T09:47:13;1.00;87.30
13332;DHT22;6735;51.456;12.626;2022-12-10T09:49:50;1.00;87.30
13332;DHT22;6735;51.456;12.626;2022-12-10T09:52:21;1.00;87.40
13332;DHT22;6735;51.456;12.626;2022-12-10T09:55:00;0.90;86.90
13332;DHT22;6735;51.456;12.626;2022-12-10T09:57:33;1.00;87.50
13332;DHT22;6735;51.456;12.626;2022-12-10T10:00:05;1.00;87.20
13332;DHT22;6735;51.456;12.626;2022-12-10T10:02:33;1.10;87.20
13332;DHT22;6735;51.456;12.626;2022-12-10T10:05:10;1.20;86.90
13332;DHT22;6735;51.456;12.626;2022-12-10T10:07:43;1.20;86.80
13332;DHT22;6735;51.456;12.626;2022-12-10T10:10:27;1.20;86.70
13332;DHT22;6735;51.456;12.626;2022-12-10T10:12:55;1.20;86.70
13332;DHT22;6735;51.456;12.626;2022-12-10T10:15:33;1.30;86.60
13332;DHT22;6735;51.456;12.626;2022-12-10T10:18:13;1.30;85.90
13332;DHT22;6735;51.456;12.626;2022-12-10T10:20:40;1.20;86.40
13332;DHT22;6735;51.456;12.626;2022-12-10T10:23:06;1.20;86.70
13332;DHT22;6735;51.456;12.626;2022-12-10T10:25:31;1.20;86.70
13332;DHT22;6735;51.456;12.626;2022-12-10T10:27:57;1.20;86.30
13332;DHT22;6735;51.456;12.626;2022-12-10T10:30:23;1.20;86.30
13332;DHT22;6735;51.456;12.626;2022-12-10T10:32:55;1.30;86.70
13332;DHT22;6735;51.456;12.626;2022-12-10T10:35:24;1.30;86.50
13332;DHT22;6735;51.456;12.626;2022-12-10T10:37:55;1.20;86.20
13332;DHT22;6735;51.456;12.626;2022-12-10T10:40:28;1.30;86.30
13332;DHT22;6735;51.456;12.626;2022-12-10T10:42:56;1.30;86.40
13332;DHT22;6735;51.456;12.626;2022-12-10T10:45:41;1.20;86.00
13332;DHT22;6735;51.456;12.626;2022-12-10T10:48:16;1.20;85.90
13332;DHT22;6735;51.456;12.626;2022-12-10T10:56:26;1.20;86.10
13332;DHT22;6735;51.456;12.626;2022-12-10T11:01:25;1.10;86.10
13332;DHT22;6735;51.456;12.626;2022-12-10T11:03:58;1.20;86.10
13332;DHT22;6735;51.456;12.626;2022-12-10T11:06:25;1.10;85.90
13332;DHT22;6735;51.456;12.626;2022-12-10T11:08:55;1.00;85.70
13332;DHT22;6735;51.456;12.626;2022-12-10T11:11:38;1.10;85.90
13332;DHT22;6735;51.456;12.626;2022-12-10T11:14:26;1.10;86.00
13332;DHT22;6735;51.456;12.626;2022-12-10T11:19:34;1.10;86.20
13332;DHT22;6735;51.456;12.626;2022-12-10T11:22:16;1.10;86.20
13332;DHT22;6735;51.456;12.626;2022-12-10T11:24:42;1.20;86.20
13332;DHT22;6735;51.456;12.626;2022-12-10T11:27:38;1.20;85.90
13332;DHT22;6735;51.456;12.626;2022-12-10T11:30:14;1.10;85.80
13332;DHT22;6735;51.456;12.626;2022-12-10T11:33:21;1.10;85.70
13332;DHT22;6735;51.456;12.626;2022-12-10T11:38:52;1.10;85.90
13332;DHT22;6735;51.456;12.626;2022-12-10T11:41:53;0.90;85.60
13332;DHT22;6735;51.456;12.626;2022-12-10T11:44:37;0.90;85.80
13332;DHT22;6735;51.456;12.626;2022-12-10T11:58:28;1.00;85.80
13332;DHT22;6735;51.456;12.626;2022-12-10T12:06:11;1.00;85.50
13332;DHT22;6735;51.456;12.626;2022-12-10T12:14:40;1.00;85.50
13332;DHT22;6735;51.456;12.626;2022-12-10T12:19:48;1.00;85.80
13332;DHT22;6735;51.456;12.626;2022-12-10T12:22:21;0.90;85.80
13332;DHT22;6735;51.456;12.626;2022-12-10T12:24:48;1.00;86.00
13332;DHT22;6735;51.456;12.626;2022-12-10T12:27:38;1.00;85.90
13332;DHT22;6735;51.456;12.626;2022-12-10T12:30:16;1.10;85.90
13332;DHT22;6735;51.456;12.626;2022-12-10T12:32:58;1.20;85.70
13332;DHT22;6735;51.456;12.626;2022-12-10T12:35:48;1.10;85.50
13332;DHT22;6735;51.456;12.626;2022-12-10T12:41:03;1.10;85.70
13332;DHT22;6735;51.456;12.626;2022-12-10T12:46:03;1.10;85.60
13332;DHT22;6735;51.456;12.626;2022-12-10T12:51:10;1.00;85.80
13332;DHT22;6735;51.456;12.626;2022-12-10T12:53:38;1.10;85.80
13332;DHT22;6735;51.456;12.626;2022-12-10T13:04:46;0.90;85.70
13332;DHT22;6735;51.456;12.626;2022-12-10T13:12:48;0.90;85.90
13332;DHT22;6735;51.456;12.626;2022-12-10T13:15:36;0.90;86.00
13332;DHT22;6735;51.456;12.626;2022-12-10T13:18:18;0.90;86.30
13332;DHT22;6735;51.456;12.626;2022-12-10T13:20:46;1.00;86.30
13332;DHT22;6735;51.456;12.626;2022-12-10T13:31:07;0.90;86.20
13332;DHT22;6735;51.456;12.626;2022-12-10T13:34:05;0.90;86.30
13332;DHT22;6735;51.456;12.626;2022-12-10T13:36:36;0.90;86.20
13332;DHT22;6735;51.456;12.626;2022-12-10T13:41:28;0.90;86.40
13332;DHT22;6735;51.456;12.626;2022-12-10T13:44:49;0.90;86.50
13332;DHT22;6735;51.456;12.626;2022-12-10T13:50:17;1.10;87.30
13332;DHT22;6735;51.456;12.626;2022-12-10T13:55:38;1.10;86.70
13332;DHT22;6735;51.456;12.626;2022-12-10T14:01:20;1.30;86.80
13332;DHT22;6735;51.456;12.626;2022-12-10T14:04:01;1.30;86.30
13332;DHT22;6735;51.456;12.626;2022-12-10T14:06:34;1.30;86.20
13332;DHT22;6735;51.456;12.626;2022-12-10T14:09:17;1.30;86.20
13332;DHT22;6735;51.456;12.626;2022-12-10T14:11:51;1.30;86.20
13332;DHT22;6735;51.456;12.626;2022-12-10T14:14:31;1.30;86.40
13332;DHT22;6735;51.456;12.626;2022-12-10T14:17:05;1.30;86.10
13332;DHT22;6735;51.456;12.626;2022-12-10T14:19:32;1.30;86.10
13332;DHT22;6735;51.456;12.626;2022-12-10T14:22:06;1.20;86.00
13332;DHT22;6735;51.456;12.626;2022-12-10T14:24:35;1.30;86.30
13332;DHT22;6735;51.456;12.626;2022-12-10T14:27:18;1.30;86.40
13332;DHT22;6735;51.456;12.626;2022-12-10T14:29:46;1.30;86.30
13332;DHT22;6735;51.456;12.626;2022-12-10T14:32:19;1.30;86.20
13332;DHT22;6735;51.456;12.626;2022-12-10T14:34:56;1.30;85.90
13332;DHT22;6735;51.456;12.626;2022-12-10T14:37:26;1.30;86.30
13332;DHT22;6735;51.456;12.626;2022-12-10T14:39:52;1.20;86.20
13332;DHT22;6735;51.456;12.626;2022-12-10T14:42:18;1.20;85.90
13332;DHT22;6735;51.456;12.626;2022-12-10T14:44:44;1.30;86.40
13332;DHT22;6735;51.456;12.626;2022-12-10T14:47:15;1.20;85.90
13332;DHT22;6735;51.456;12.626;2022-12-10T14:49:45;1.20;86.40
13332;DHT22;6735;51.456;12.626;2022-12-10T14:52:14;1.20;86.30
13332;DHT22;6735;51.456;12.626;2022-12-10T14:54:40;1.20;86.20
13332;DHT22;6735;51.456;12.626;2022-12-10T14:57:11;1.10;85.70
13332;DHT22;6735;51.456;12.626;2022-12-10T14:59:46;1.00;85.90
13332;DHT22;6735;51.456;12.626;2022-12-10T15:02:27;1.00;86.10
13332;DHT22;6735;51.456;12.626;2022-12-10T15:04:54;0.90;86.20
13332;DHT22;6735;51.456;12.626;2022-12-10T15:07:23;0.90;86.40
13332;DHT22;6735;51.456;12.626;2022-12-10T15:09:50;0.90;86.60
13332;DHT22;6735;51.456;12.626;2022-12-10T15:12:49;1.00;86.60
13332;DHT22;6735;51.456;12.626;2022-12-10T15:15:33;1.00;86.30
13332;DHT22;6735;51.456;12.626;2022-12-10T15:18:03;0.90;86.40
13332;DHT22;6735;51.456;12.626;2022-12-10T15:20:51;0.90;86.70
13332;DHT22;6735;51.456;12.626;2022-12-10T15:23:24;1.00;86.50
13332;DHT22;6735;51.456;12.626;2022-12-10T15:26:00;0.80;86.30
13332;DHT22;6735;51.456;12.626;2022-12-10T15:28:35;0.80;86.20
13332;DHT22;6735;51.456;12.626;2022-12-10T15:31:22;0.80;86.30
13332;DHT22;6735;51.456;12.626;2022-12-10T15:34:02;1.00;86.50
13332;DHT22;6735;51.456;12.626;2022-12-10T15:36:39;1.10;86.30
13332;DHT22;6735;51.456;12.626;2022-12-10T15:39:21;1.00;85.60
13332;DHT22;6735;51.456;12.626;2022-12-10T15:42:00;0.90;85.70
13332;DHT22;6735;51.456;12.626;2022-12-10T15:47:08;0.80;86.00
13332;DHT22;6735;51.456;12.626;2022-12-10T15:49:35;0.80;86.10
13332;DHT22;6735;51.456;12.626;2022-12-10T15:52:01;0.80;86.20
13332;DHT22;6735;51.456;12.626;2022-12-10T15:54:28;0.80;86.20
13332;DHT22;6735;51.456;12.626;2022-12-10T15:56:56;0.80;86.10
13332;DHT22;6735;51.456;12.626;2022-12-10T15:59:21;0.70;86.30
13332;DHT22;6735;51.456;12.626;2022-12-10T16:01:47;0.70;86.20
13332;DHT22;6735;51.456;12.626;2022-12-10T16:04:12;0.70;86.30
13332;DHT22;6735;51.456;12.626;2022-12-10T16:06:39;0.70;86.50
13332;DHT22;6735;51.456;12.626;2022-12-10T16:09:05;0.70;86.30
13332;DHT22;6735;51.456;12.626;2022-12-10T16:11:31;0.50;86.30
13332;DHT22;6735;51.456;12.626;2022-12-10T16:13:57;0.60;86.60
13332;DHT22;6735;51.456;12.626;2022-12-10T16:16:24;0.60;86.60
13332;DHT22;6735;51.456;12.626;2022-12-10T16:18:50;0.60;86.60
13332;DHT22;6735;51.456;12.626;2022-12-10T16:21:16;0.60;86.50
13332;DHT22;6735;51.456;12.626;2022-12-10T16:23:41;0.60;86.50
13332;DHT22;6735;51.456;12.626;2022-12-10T16:26:19;0.60;86.40
13332;DHT22;6735;51.456;12.626;2022-12-10T16:28:46;0.60;86.40
13332;DHT22;6735;51.456;12.626;2022-12-10T16:31:14;0.60;86.40
13332;DHT22;6735;51.456;12.626;2022-12-10T16:33:40;0.60;86.50
13332;DHT22;6735;51.456;12.626;2022-12-10T16:36:06;0.60;86.40
13332;DHT22;6735;51.456;12.626;2022-12-10T16:38:31;0.60;86.30
13332;DHT22;6735;51.456;12.626;2022-12-10T16:40:57;0.60;86.20
13332;DHT22;6735;51.456;12.626;2022-12-10T16:43:25;0.60;86.40
13332;DHT22;6735;51.456;12.626;2022-12-10T16:45:51;0.70;87.20
13332;DHT22;6735;51.456;12.626;2022-12-10T16:48:18;0.80;86.80
13332;DHT22;6735;51.456;12.626;2022-12-10T16:50:44;0.90;86.70
13332;DHT22;6735;51.456;12.626;2022-12-10T16:53:24;0.90;86.70
13332;DHT22;6735;51.456;12.626;2022-12-10T16:55:51;1.00;86.40
13332;DHT22;6735;51.456;12.626;2022-12-10T16:58:17;1.00;86.40
13332;DHT22;6735;51.456;12.626;2022-12-10T17:00:48;1.10;86.40
13332;DHT22;6735;51.456;12.626;2022-12-10T17:03:16;1.10;86.10
13332;DHT22;6735;51.456;12.626;2022-12-10T17:05:48;1.10;86.00
13332;DHT22;6735;51.456;12.626;2022-12-10T17:08:14;1.10;85.90
13332;DHT22;6735;51.456;12.626;2022-12-10T17:10:40;1.00;85.70
13332;DHT22;6735;51.456;12.626;2022-12-10T17:13:24;1.10;85.90
13332;DHT22;6735;51.456;12.626;2022-12-10T17:15:51;1.10;85.90
13332;DHT22;6735;51.456;12.626;2022-12-10T17:18:17;1.00;85.50
13332;DHT22;6735;51.456;12.626;2022-12-10T17:20:44;1.00;86.00
13332;DHT22;6735;51.456;12.626;2022-12-10T17:23:10;1.00;86.10
13332;DHT22;6735;51.456;12.626;2022-12-10T17:25:36;1.00;85.70
13332;DHT22;6735;51.456;12.626;2022-12-10T17:28:02;0.90;85.90
13332;DHT22;6735;51.456;12.626;2022-12-10T17:30:28;0.90;86.20
13332;DHT22;6735;51.456;12.626;2022-12-10T17:32:53;0.90;86.20
13332;DHT22;6735;51.456;12.626;2022-12-10T17:35:20;1.00;86.40
13332;DHT22;6735;51.456;12.626;2022-12-10T17:37:46;0.90;86.00
13332;DHT22;6735;51.456;12.626;2022-12-10T17:40:17;0.80;86.20